Terminal Aerodrome Forecast
Issued by NWS Flagstaff, AZ

Home | Current Version | Previous Version | Text Only | Print | Product List | Glossary On
Versions: 1 2 3 4 5 6 7 8 9 10 11 12 13 14 15 16 17 18 19
000
FTUS45 KFGZ 011100
TAFINW
TAF
KINW 011128Z 0112/0212 VRB05KT P6SM FEW120 BKN150
     FM012100 26012KT P6SM SCT080 BKN120 PROB30 0200/0203 VRB20G40KT
      -TSRA BKN050CB
     FM020400 VRB03KT P6SM SCT120=

USA.gov is the U.S. government's official web portal to all federal, state and local government web resources and services.